Time;durP1;ratioP1;P1;durP2;ratioP2;P2;SDS_P1;SDS_P2;PMS_P1;PMS_P2;Temp;Humidity;BMP_temperature;BMP_pressure;BME280_temperature;BME280_humidity;BME280_pressure;Samples;Min_cycle;Max_cycle;Signal;HPM_P1;HPM_P2
2022/04/13 00:00:33;;;;;;;17.67;10.38;;;17.10;99.90;;;17.46;64.10;101053.16;5076272;28;20571;-62
2022/04/13 00:03:03;;;;;;;15.13;10.10;;;17.10;99.90;;;17.35;64.26;101054.41;5076353;28;20044;-62
2022/04/13 00:05:32;;;;;;;17.83;10.40;;;17.10;99.90;;;17.48;64.21;101051.34;5076285;28;20048;-63
2022/04/13 00:08:06;;;;;;;18.17;10.88;;;17.10;99.90;;;17.50;64.29;101052.19;5075984;28;20040;-62
2022/04/13 00:10:34;;;;;;;15.25;11.45;;;17.10;99.90;;;17.53;64.28;101043.19;5058343;28;20067;-62
2022/04/13 00:13:04;;;;;;;19.27;11.65;;;17.20;99.90;;;17.53;64.47;101045.88;5075763;28;20044;-63
2022/04/13 00:15:33;;;;;;;18.60;12.13;;;17.20;99.90;;;17.43;64.63;101030.97;5075884;28;20054;-63
2022/04/13 00:18:07;;;;;;;17.48;11.18;;;17.20;99.90;;;17.51;64.68;101045.94;5076164;28;20055;-62
2022/04/13 00:20:36;;;;;;;19.98;11.25;;;17.20;99.90;;;17.51;64.76;101040.56;5076316;28;20044;-62
2022/04/13 00:23:04;;;;;;;18.67;12.07;;;17.20;99.90;;;17.53;64.84;101051.22;5076059;28;20080;-62
2022/04/13 00:25:33;;;;;;;16.92;11.95;;;17.20;99.90;;;17.53;64.96;101045.88;5075744;28;20052;-63
2022/04/13 00:28:02;;;;;;;20.90;12.15;;;17.20;99.90;;;17.53;65.02;101049.44;5057632;28;20109;-63
2022/04/13 00:30:30;;;;;;;18.52;11.50;;;17.20;99.90;;;17.57;65.09;101055.56;5075584;28;20125;-62
2022/04/13 00:32:58;;;;;;;18.70;12.40;;;17.20;99.90;;;17.57;65.24;101067.16;5075477;28;20083;-62
2022/04/13 00:35:29;;;;;;;25.20;12.63;;;17.20;99.90;;;17.53;65.38;101057.47;5075513;28;20040;-63
2022/04/13 00:37:58;;;;;;;21.23;11.57;;;17.20;99.90;;;17.58;65.43;101068.00;5035849;28;20129;-62
2022/04/13 00:40:27;;;;;;;18.08;12.05;;;17.20;99.90;;;17.50;65.65;101057.53;5035323;28;20320;-62
2022/04/13 00:42:55;;;;;;;21.10;12.82;;;17.20;99.90;;;17.52;65.97;101062.81;5035682;28;20041;-62
2022/04/13 00:45:24;;;;;;;18.13;11.30;;;17.20;99.90;;;17.53;65.63;101061.94;5035391;28;20037;-62
2022/04/13 00:47:53;;;;;;;23.35;12.02;;;17.20;99.90;;;17.49;66.14;101062.94;5035746;28;20049;-62
2022/04/13 00:50:23;;;;;;;17.35;11.63;;;17.20;99.90;;;17.48;66.29;101061.16;5035210;28;20446;-62
2022/04/13 00:52:54;;;;;;;20.42;11.93;;;17.10;99.90;;;17.46;66.48;101071.03;5035518;28;20115;-62
2022/04/13 00:55:25;;;;;;;20.50;11.68;;;17.10;99.90;;;17.31;66.69;101048.25;5034170;28;20403;-62
2022/04/13 00:57:55;;;;;;;17.10;11.07;;;17.10;99.90;;;17.50;66.80;101075.41;5035380;28;20435;-62
2022/04/13 01:00:23;;;;;;;16.55;10.23;;;17.10;99.90;;;17.51;66.85;101079.81;5034063;28;20152;-62
2022/04/13 01:02:53;;;;;;;19.17;11.27;;;17.10;99.90;;;17.46;66.98;101081.72;5034942;28;20042;-62
2022/04/13 01:05:23;;;;;;;18.15;11.45;;;17.10;99.90;;;17.41;67.41;101068.47;5035057;28;20049;-62
2022/04/13 01:07:54;;;;;;;19.80;11.07;;;17.10;99.90;;;17.47;67.55;101083.47;5033971;28;20077;-62
2022/04/13 01:10:24;;;;;;;18.13;11.23;;;17.10;99.90;;;17.38;67.81;101087.25;5034985;28;20065;-62
2022/04/13 01:12:52;;;;;;;17.90;11.23;;;17.00;99.90;;;17.41;67.84;101083.63;5033940;28;20392;-62
2022/04/13 01:15:21;;;;;;;20.55;11.00;;;17.00;99.90;;;17.33;67.92;101077.63;5035015;28;20045;-62
2022/04/13 01:17:49;;;;;;;18.65;11.15;;;16.90;99.90;;;17.17;69.35;101072.72;5035291;28;20045;-62
2022/04/13 01:20:22;;;;;;;17.92;11.27;;;16.80;99.90;;;17.07;69.48;101076.56;5034718;28;20095;-62
2022/04/13 01:22:51;;;;;;;18.08;11.40;;;16.70;99.90;;;17.02;69.73;101066.94;5033703;28;20547;-62
2022/04/13 01:25:20;;;;;;;17.00;11.03;;;16.60;99.90;;;17.05;69.43;101067.72;5034898;28;20048;-62
2022/04/13 01:27:48;;;;;;;15.70;11.25;;;16.60;99.90;;;17.10;69.44;101070.25;5034472;28;20323;-62
2022/04/13 01:30:17;;;;;;;25.35;11.55;;;16.70;99.90;;;17.15;69.42;101079.91;5034874;28;20503;-62
2022/04/13 01:32:45;;;;;;;19.83;11.85;;;16.70;99.90;;;17.15;69.55;101082.59;5034753;28;20462;-62
2022/04/13 01:35:13;;;;;;;19.35;11.60;;;16.70;99.90;;;17.27;69.23;101088.50;5034414;28;20446;-62
2022/04/13 01:37:42;;;;;;;17.33;11.02;;;16.70;99.90;;;17.27;69.14;101089.38;5071203;28;20056;-62
2022/04/13 01:40:12;;;;;;;20.55;10.95;;;16.80;99.90;;;17.24;69.17;101088.59;5056554;28;20494;-62
2022/04/13 01:42:41;;;;;;;19.38;11.32;;;16.80;99.90;;;17.25;69.21;101091.22;5074245;28;20098;-62
2022/04/13 01:45:10;;;;;;;18.80;11.25;;;16.80;99.90;;;17.22;69.24;101077.94;5056449;28;20076;-62
2022/04/13 01:47:39;;;;;;;20.58;11.77;;;16.90;99.90;;;17.26;69.25;101101.00;5073055;28;20072;-62
2022/04/13 01:50:09;;;;;;;19.10;10.75;;;16.80;99.90;;;17.27;69.25;101091.16;5074018;28;20041;-62
2022/04/13 01:52:38;;;;;;;20.48;11.43;;;16.90;99.90;;;17.26;69.16;101086.75;5074018;28;20498;-63
2022/04/13 01:55:07;;;;;;;17.95;11.43;;;16.80;99.90;;;17.23;69.33;101094.88;5074135;28;20098;-62
2022/04/13 01:57:37;;;;;;;19.63;12.32;;;16.80;99.90;;;17.15;69.32;101098.63;5073877;28;20498;-62
2022/04/13 02:00:09;;;;;;;21.58;12.13;;;16.80;99.90;;;17.16;69.52;101102.19;5073981;28;20041;-62
2022/04/13 02:02:38;;;;;;;16.58;12.23;;;16.80;99.90;;;17.17;69.50;101102.13;5073902;28;20088;-62
2022/04/13 02:05:09;;;;;;;20.77;13.07;;;16.80;99.90;;;17.17;69.58;101105.75;5073743;28;20508;-62
2022/04/13 02:07:38;;;;;;;21.60;12.65;;;16.80;99.90;;;17.20;69.58;101100.28;5073965;28;20037;-62
2022/04/13 02:10:09;;;;;;;23.23;12.88;;;16.80;99.90;;;17.15;69.82;101112.00;5073701;28;20064;-62
2022/04/13 02:12:39;;;;;;;19.88;13.10;;;16.80;99.90;;;17.10;69.84;101111.25;5055991;28;20581;-62
2022/04/13 02:15:09;;;;;;;17.45;12.68;;;16.70;99.90;;;17.07;70.26;101110.47;5073712;28;20476;-62
2022/04/13 02:17:38;;;;;;;18.33;12.60;;;16.70;99.90;;;17.01;70.46;101106.13;5073854;28;20098;-62
2022/04/13 02:20:09;;;;;;;17.77;12.52;;;16.60;99.90;;;17.00;70.83;101115.09;5073699;28;20467;-62
2022/04/13 02:22:37;;;;;;;20.05;12.75;;;16.60;99.90;;;17.01;70.87;101111.47;5073530;28;20041;-62
2022/04/13 02:25:15;;;;;;;23.85;13.82;;;16.60;99.90;;;17.04;71.15;101123.88;5073740;28;20535;-62
2022/04/13 02:27:44;;;;;;;17.88;11.70;;;16.60;99.90;;;17.03;71.20;101123.00;5073669;28;20036;-62
2022/04/13 02:30:13;;;;;;;20.20;12.20;;;16.60;99.90;;;17.03;71.44;101122.16;5073272;28;20098;-62
2022/04/13 02:32:43;;;;;;;18.38;12.80;;;16.60;99.90;;;17.03;71.71;101116.81;5073642;28;20333;-62
2022/04/13 02:35:13;;;;;;;19.25;12.35;;;16.60;99.90;;;17.06;71.45;101111.38;5073583;28;20044;-62
2022/04/13 02:37:43;;;;;;;20.67;12.40;;;16.70;99.90;;;17.04;71.57;101113.19;5073616;28;20551;-63
2022/04/13 02:40:13;;;;;;;20.98;12.48;;;16.60;99.90;;;17.00;71.75;101115.09;5073770;28;20045;-62
2022/04/13 02:42:42;;;;;;;18.33;12.52;;;16.60;99.90;;;16.94;72.19;101109.91;5074018;28;20433;-63
2022/04/13 02:45:12;;;;;;;17.95;11.88;;;16.60;99.90;;;16.98;72.18;101119.59;5055493;28;20055;-63
2022/04/13 02:47:40;;;;;;;18.05;11.68;;;16.60;99.90;;;16.94;72.07;101104.56;5073042;28;20044;-62
2022/04/13 02:50:10;;;;;;;16.17;11.20;;;16.60;99.90;;;16.91;72.09;101107.31;5073339;28;20127;-62
2022/04/13 02:52:38;;;;;;;16.67;11.52;;;16.60;99.90;;;16.94;72.40;101106.34;5073264;28;20071;-62
2022/04/13 02:55:10;;;;;;;17.67;11.00;;;16.50;99.90;;;16.87;72.60;101104.75;5072956;28;20067;-62
2022/04/13 02:57:39;;;;;;;16.65;11.70;;;16.50;99.90;;;16.89;72.62;101119.84;5073268;28;20044;-62
2022/04/13 03:00:08;;;;;;;20.00;12.10;;;16.50;99.90;;;16.94;72.56;101127.72;5073221;28;20068;-63
2022/04/13 03:02:40;;;;;;;18.00;12.38;;;16.50;99.90;;;16.89;72.54;101119.84;5073158;28;20055;-62
2022/04/13 03:05:10;;;;;;;18.55;11.93;;;16.50;99.90;;;16.90;72.54;101129.59;5073145;28;20056;-63
2022/04/13 03:07:38;;;;;;;20.55;11.27;;;16.50;99.90;;;16.91;72.67;101134.03;5055111;28;20082;-63
2022/04/13 03:10:08;;;;;;;19.40;11.63;;;16.50;99.90;;;16.28;72.79;101028.78;5073107;28;20114;-62
2022/04/13 03:12:37;;;;;;;14.77;12.10;;;16.50;99.90;;;16.78;73.04;101110.34;5074723;28;20410;-62
2022/04/13 03:15:11;;;;;;;19.88;12.55;;;16.50;99.90;;;16.39;73.03;101053.47;5077263;28;20047;-63
2022/04/13 03:17:41;;;;;;;22.42;12.88;;;16.50;99.90;;;16.88;72.98;101139.44;5077002;28;20439;-62
2022/04/13 03:20:12;;;;;;;17.77;12.75;;;16.50;99.90;;;16.87;73.11;101151.06;5077292;28;20062;-63
2022/04/13 03:22:40;;;;;;;17.13;12.32;;;16.50;99.90;;;16.87;73.12;101148.41;5076918;28;20441;-62
2022/04/13 03:25:10;;;;;;;19.20;12.82;;;16.50;99.90;;;16.74;73.15;101141.59;5076764;28;20453;-62
2022/04/13 03:27:38;;;;;;;20.00;12.88;;;16.40;99.90;;;16.80;73.35;101145.94;5076848;28;20434;-62
2022/04/13 03:30:09;;;;;;;19.10;12.90;;;16.40;99.90;;;16.84;73.50;101156.47;5076985;28;20068;-62
2022/04/13 03:32:38;;;;;;;18.73;12.45;;;16.40;99.90;;;16.84;73.53;101153.81;5059026;28;20036;-62
2022/04/13 03:35:11;;;;;;;17.70;12.90;;;16.40;99.90;;;16.87;73.52;101158.19;5076502;28;20040;-63
2022/04/13 03:37:40;;;;;;;18.80;13.18;;;16.50;99.90;;;16.09;73.37;101031.06;5077240;28;20082;-62
2022/04/13 03:40:11;;;;;;;18.52;13.05;;;16.50;99.90;;;16.84;73.40;101158.28;5075575;28;20131;-62
2022/04/13 03:42:41;;;;;;;19.38;12.40;;;16.50;99.90;;;16.82;73.53;101162.78;5076543;28;20486;-62
2022/04/13 03:45:12;;;;;;;22.23;13.80;;;16.40;99.90;;;16.85;73.80;101171.59;5076809;28;20064;-62
2022/04/13 03:47:41;;;;;;;;;;;16.40;99.90;;;16.87;73.66;101164.44;5077154;28;20474;-63
2022/04/13 03:50:12;;;;;;;20.00;13.43;;;16.50;99.90;;;16.86;73.61;101165.34;5076376;28;19920;-62
2022/04/13 03:52:40;;;;;;;20.20;13.38;;;16.50;99.90;;;16.89;73.21;101165.28;5076319;28;20045;-62
2022/04/13 03:55:10;;;;;;;17.92;12.88;;;16.50;99.90;;;16.85;73.45;101171.59;5076397;28;20028;-62
2022/04/13 03:57:39;;;;;;;25.15;13.05;;;16.50;99.90;;;16.89;73.30;101173.28;5076551;28;20467;-62
2022/04/13 04:00:10;;;;;;;21.27;12.98;;;16.50;99.90;;;16.87;73.28;101177.78;5058441;28;20056;-62
2022/04/13 04:02:43;;;;;;;18.83;13.52;;;16.50;99.90;;;16.85;73.41;101184.97;5076658;28;20051;-62
2022/04/13 04:05:13;;;;;;;15.00;12.02;;;16.50;99.90;;;16.69;73.30;101159.53;5076449;28;20144;-62
2022/04/13 04:07:42;;;;;;;21.02;13.27;;;16.50;99.90;;;16.83;73.29;101183.25;5076664;28;20048;-63
2022/04/13 04:10:12;;;;;;;18.23;12.65;;;16.50;99.90;;;16.79;73.27;101182.44;5075918;28;20123;-62
2022/04/13 04:12:41;;;;;;;19.50;12.60;;;16.40;99.90;;;16.74;73.29;101187.00;5075883;28;20048;-62
2022/04/13 04:15:11;;;;;;;18.10;12.93;;;16.40;99.90;;;16.73;72.98;101195.06;5058622;28;20059;-63
2022/04/13 04:17:39;;;;;;;16.63;11.93;;;16.40;99.90;;;16.72;73.18;101188.88;5076035;28;20457;-63
2022/04/13 04:20:09;;;;;;;19.60;12.65;;;16.40;99.90;;;16.50;73.22;101162.69;5076026;28;20033;-62
2022/04/13 04:22:39;;;;;;;18.77;13.18;;;16.40;99.90;;;16.67;73.08;101197.88;5058141;28;20045;-62
2022/04/13 04:25:10;;;;;;;19.95;13.50;;;16.30;99.90;;;16.56;73.32;101198.16;5076029;28;20436;-62
2022/04/13 04:27:39;;;;;;;17.65;12.82;;;16.30;99.90;;;16.40;73.47;101178.03;5075953;28;20044;-62
2022/04/13 04:30:08;;;;;;;21.17;12.93;;;16.20;99.90;;;16.45;73.59;101201.94;5075563;28;20127;-62
2022/04/13 04:32:37;;;;;;;19.90;13.77;;;16.10;99.90;;;16.36;73.53;101207.47;5058212;28;20075;-62
2022/04/13 04:35:07;;;;;;;21.58;14.23;;;16.10;99.90;;;16.34;73.44;101210.19;5075798;28;20082;-62
2022/04/13 04:37:36;;;;;;;19.15;13.20;;;16.00;99.90;;;16.33;73.53;101224.47;5075762;28;20067;-62
2022/04/13 04:40:07;;;;;;;18.70;14.05;;;16.00;99.90;;;16.09;73.53;101198.31;5075430;28;20494;-62
2022/04/13 04:42:45;;;;;;;23.23;14.18;;;15.90;99.90;;;16.22;73.62;101229.16;5075761;28;20041;-62
2022/04/13 04:45:16;;;;;;;19.55;14.88;;;15.90;99.90;;;16.11;73.79;101229.38;5075387;28;20040;-62
2022/04/13 04:47:47;;;;;;;24.23;15.82;;;15.80;99.90;;;15.91;74.13;101206.72;5075616;28;20048;-62
2022/04/13 04:50:16;;;;;;;26.00;17.05;;;15.80;99.90;;;15.86;74.34;101230.81;5075516;28;20056;-62
2022/04/13 04:52:46;;;;;;;26.38;17.95;;;15.70;99.90;;;15.90;74.55;101242.28;5075172;28;20045;-62
2022/04/13 04:55:17;;;;;;;25.38;18.33;;;15.60;99.90;;;15.83;74.67;101238.84;5057687;28;20102;-62
2022/04/13 04:57:47;;;;;;;23.27;17.92;;;15.60;99.90;;;15.65;74.92;101217.91;5075273;28;20044;-62
2022/04/13 05:00:19;;;;;;;26.88;18.02;;;15.50;99.90;;;15.83;74.73;101243.34;5075102;28;20099;-62
2022/04/13 05:02:47;;;;;;;26.75;19.17;;;15.50;99.90;;;15.76;74.97;101239.91;5057314;28;20486;-62
2022/04/13 05:05:16;;;;;;;28.65;18.90;;;15.40;99.90;;;15.65;75.19;101235.69;5074945;28;20374;-62
2022/04/13 05:07:45;;;;;;;28.73;20.20;;;15.40;99.90;;;15.75;75.21;101251.50;5074906;28;20090;-62
2022/04/13 05:10:15;;;;;;;32.45;19.77;;;15.40;99.90;;;15.74;75.17;101254.16;5074855;28;20071;-62
2022/04/13 05:12:47;;;;;;;27.90;18.67;;;15.40;99.90;;;15.77;75.32;101254.13;5075158;28;20145;-62
2022/04/13 05:15:16;;;;;;;31.10;20.20;;;15.40;99.90;;;15.77;75.28;101256.78;5074802;28;20044;-62
2022/04/13 05:17:44;;;;;;;24.60;19.00;;;15.40;99.90;;;15.34;75.40;101179.38;5074622;28;20436;-62
2022/04/13 05:20:13;;;;;;;27.48;19.08;;;15.40;99.90;;;15.81;75.39;101266.50;5074891;28;20036;-62
2022/04/13 05:22:42;;;;;;;27.45;19.48;;;15.40;99.90;;;15.79;75.53;101263.88;5075082;28;20055;-62
2022/04/13 05:25:15;;;;;;;29.30;20.67;;;15.40;99.90;;;15.81;75.35;101271.84;5074718;28;20043;-62
2022/04/13 05:27:45;;;;;;;27.33;20.25;;;15.40;99.90;;;15.81;75.61;101266.50;5074540;28;20094;-62
2022/04/13 05:30:14;;;;;;;29.75;20.15;;;15.40;99.90;;;15.83;75.75;101280.69;5074542;28;20042;-63
2022/04/13 05:32:48;;;;;;;32.78;20.85;;;15.50;99.90;;;15.83;75.64;101276.22;5074734;28;20123;-63
2022/04/13 05:35:16;;;;;;;27.65;19.65;;;15.50;99.90;;;15.85;75.80;101273.53;5073770;28;20454;-62
2022/04/13 05:37:45;;;;;;;30.33;20.33;;;15.50;99.90;;;15.91;75.78;101274.28;5056085;28;20061;-62
2022/04/13 05:40:15;;;;;;;26.85;19.55;;;15.60;99.90;;;15.91;75.67;101268.09;5074178;28;20084;-63
2022/04/13 05:42:44;;;;;;;30.58;18.58;;;15.60;99.90;;;15.96;75.57;101290.19;5074512;28;20129;-63
2022/04/13 05:45:14;;;;;;;25.70;18.20;;;15.60;99.90;;;15.96;75.53;101285.75;5074620;28;20435;-62
2022/04/13 05:47:43;;;;;;;28.00;18.55;;;15.70;99.90;;;15.97;75.84;101281.28;5074352;28;20048;-62
2022/04/13 05:50:13;;;;;;;27.15;17.95;;;15.70;99.90;;;16.01;75.69;101288.31;5074047;28;20072;-62
2022/04/13 05:52:42;;;;;;;26.20;18.50;;;15.70;99.90;;;16.10;75.66;101296.16;5073962;28;20040;-63
2022/04/13 05:55:12;;;;;;;25.83;17.73;;;15.70;99.90;;;15.96;75.46;101274.19;5074245;28;20040;-62
2022/04/13 05:57:42;;;;;;;23.73;17.85;;;15.80;99.90;;;16.17;75.53;101343.16;5074052;28;20131;-62
2022/04/13 06:00:13;;;;;;;29.30;18.13;;;15.80;99.90;;;16.23;75.27;101303.00;5056158;28;20048;-62
2022/04/13 06:02:42;;;;;;;24.67;16.92;;;15.90;99.90;;;16.28;75.17;101306.44;5056232;28;20118;-62
2022/04/13 06:05:12;;;;;;;26.40;17.95;;;16.00;99.90;;;16.22;75.11;101309.22;5074265;28;20094;-62
2022/04/13 06:07:42;;;;;;;25.77;18.17;;;16.00;99.90;;;16.27;75.05;101321.59;5073657;28;20106;-63
2022/04/13 06:10:11;;;;;;;24.92;17.40;;;15.90;99.90;;;16.12;75.04;101299.66;5073580;28;20033;-62
2022/04/13 06:12:41;;;;;;;23.80;17.33;;;15.90;99.90;;;16.20;75.80;101332.44;5073481;28;20032;-62
2022/04/13 06:15:12;;;;;;;31.87;18.77;;;15.90;99.90;;;15.97;75.69;101310.63;5073482;28;20044;-62
2022/04/13 06:17:41;;;;;;;25.58;17.60;;;15.80;99.90;;;16.06;75.96;101337.16;5073690;28;20064;-62
2022/04/13 06:20:11;;;;;;;25.05;17.88;;;15.70;99.90;;;16.04;75.74;101336.31;5073415;28;20041;-62
2022/04/13 06:22:41;;;;;;;22.90;16.90;;;15.70;99.90;;;16.13;75.61;101346.78;5073709;28;20086;-62
2022/04/13 06:25:12;;;;;;;25.60;18.30;;;15.70;99.90;;;16.18;75.12;101345.78;5073476;28;20045;-62
2022/04/13 06:27:44;;;;;;;24.38;17.15;;;15.80;99.90;;;16.22;75.15;101347.47;5055737;28;20448;-63
2022/04/13 06:30:14;;;;;;;23.48;16.08;;;15.80;99.90;;;16.31;74.94;101353.56;5073626;28;20155;-62
2022/04/13 06:32:45;;;;;;;24.42;16.70;;;15.90;99.90;;;16.22;75.16;101342.16;5073753;28;20049;-62
2022/04/13 06:35:15;;;;;;;23.27;16.20;;;15.90;99.90;;;16.37;74.86;101365.00;5055519;28;20051;-62
2022/04/13 06:37:45;;;;;;;23.83;16.42;;;16.00;99.90;;;16.42;74.82;101368.44;5073190;28;20048;-62
2022/04/13 06:40:15;;;;;;;23.40;16.58;;;16.00;99.90;;;16.42;74.88;101370.22;5073189;28;20041;-63
2022/04/13 06:42:46;;;;;;;21.58;15.57;;;16.10;99.90;;;16.41;75.08;101369.38;5072159;28;20055;-62
2022/04/13 06:45:16;;;;;;;21.80;15.87;;;16.10;99.90;;;16.34;75.04;101365.06;5073042;28;20044;-62
2022/04/13 06:47:44;;;;;;;24.08;16.52;;;16.10;99.90;;;16.46;75.22;101391.50;5072497;28;20486;-63
2022/04/13 06:50:13;;;;;;;23.85;17.35;;;16.10;99.90;;;16.44;75.46;101395.13;5073095;28;20048;-62
2022/04/13 06:52:42;;;;;;;24.48;16.88;;;16.10;99.90;;;16.45;75.76;101395.13;5055242;28;20076;-62
2022/04/13 06:55:11;;;;;;;25.20;16.40;;;16.10;99.90;;;16.41;76.25;101396.09;5072929;28;20090;-62
2022/04/13 06:57:40;;;;;;;25.55;16.75;;;16.10;99.90;;;16.53;76.17;101400.31;5073162;28;20070;-62
2022/04/13 07:00:15;;;;;;;25.27;17.38;;;16.10;99.90;;;16.57;76.12;101400.22;5073223;28;20106;-63
2022/04/13 07:02:44;;;;;;;25.40;17.15;;;16.20;99.90;;;16.58;76.24;101401.09;5073136;28;20086;-62
2022/04/13 07:05:32;;;;;;;23.17;16.52;;;16.20;99.90;;;16.66;76.10;101407.19;5072949;28;20036;-63
2022/04/13 07:08:02;;;;;;;23.95;16.92;;;16.20;99.90;;;16.70;75.83;101415.09;5072740;28;20045;-62
2022/04/13 07:10:32;;;;;;;25.50;16.98;;;16.30;99.90;;;16.66;75.62;101413.41;5073262;28;20097;-63
2022/04/13 07:13:05;;;;;;;23.17;15.73;;;16.30;99.90;;;16.41;75.58;101393.41;5072889;28;20040;-62
2022/04/13 07:15:35;;;;;;;20.20;15.02;;;16.20;99.90;;;16.59;75.66;101419.75;5072817;28;20047;-62
2022/04/13 07:18:04;;;;;;;22.98;15.77;;;16.20;99.90;;;16.67;75.54;101415.16;5073009;28;20044;-62
2022/04/13 07:20:32;;;;;;;24.45;16.05;;;16.20;99.90;;;16.68;75.57;101410.69;5055062;28;20048;-62
2022/04/13 07:23:00;;;;;;;22.45;15.93;;;16.20;99.90;;;16.70;75.50;101428.47;5073008;28;20047;-64
2022/04/13 07:25:30;;;;;;;27.25;16.98;;;16.30;99.90;;;16.69;75.71;101420.44;5072602;28;20127;-63
2022/04/13 07:27:58;;;;;;;24.60;16.00;;;16.30;99.90;;;16.66;75.97;101426.75;5071652;28;20490;-63
2022/04/13 07:30:27;;;;;;;23.35;16.77;;;16.30;99.90;;;16.66;75.87;101428.53;5072615;28;20043;-63
2022/04/13 07:33:01;;;;;;;25.08;16.92;;;16.30;99.90;;;16.64;76.10;101433.94;5072584;28;20055;-62
2022/04/13 07:35:31;;;;;;;24.52;15.32;;;16.30;99.90;;;16.71;76.06;101445.34;5072522;28;20052;-62
2022/04/13 07:38:00;;;;;;;26.88;16.90;;;16.30;99.90;;;16.71;75.77;101442.69;5072825;28;20082;-62
2022/04/13 07:40:28;;;;;;;25.17;16.33;;;16.30;99.90;;;16.66;75.78;101455.25;5072822;28;20083;-62
2022/04/13 07:42:57;;;;;;;27.48;16.45;;;16.30;99.90;;;16.67;75.63;101454.34;5072463;28;20048;-62
2022/04/13 07:45:26;;;;;;;21.70;14.95;;;16.30;99.90;;;16.70;75.42;101449.84;5072523;28;20072;-62
2022/04/13 07:47:56;;;;;;;23.33;16.35;;;16.30;99.90;;;16.67;75.49;101459.69;5072498;28;20051;-62
2022/04/13 07:50:24;;;;;;;23.73;15.05;;;16.30;99.90;;;16.69;75.57;101456.06;5072573;28;20493;-62
2022/04/13 07:52:53;;;;;;;22.85;16.10;;;16.30;99.90;;;16.71;75.38;101464.06;5072761;28;20087;-62
2022/04/13 07:55:21;;;;;;;23.10;16.20;;;16.30;99.90;;;16.12;75.35;101366.41;5072645;28;20040;-61
2022/04/13 07:57:49;;;;;;;28.42;15.82;;;16.30;99.90;;;16.75;75.32;101463.06;5073427;28;20054;-63
2022/04/13 08:00:18;;;;;;;23.17;15.27;;;16.30;99.90;;;16.74;75.44;101466.69;5076090;28;20497;-63
2022/04/13 08:02:46;;;;;;;24.58;15.65;;;16.40;99.90;;;16.76;75.45;101460.38;5075971;28;20049;-66
2022/04/13 08:05:16;;;;;;;25.85;15.23;;;16.40;99.90;;;16.84;75.07;101452.22;5076353;28;20449;-64
2022/04/13 08:07:45;;;;;;;20.25;14.43;;;16.40;99.90;;;16.84;74.85;101447.75;5076281;28;20040;-64
2022/04/13 08:10:13;;;;;;;20.58;14.68;;;16.40;99.90;;;16.86;74.90;101461.94;5076163;28;20040;-64
2022/04/13 08:12:42;;;;;;;22.35;15.98;;;16.50;99.90;;;16.89;74.88;101461.91;5075931;28;20064;-64
2022/04/13 08:15:12;;;;;;;20.52;14.18;;;16.50;99.90;;;16.89;74.75;101483.28;5075867;28;20051;-64
2022/04/13 08:17:41;;;;;;;20.85;14.20;;;16.50;99.90;;;16.90;74.59;101479.69;5075728;28;20040;-62
2022/04/13 08:20:13;;;;;;;20.55;14.15;;;16.50;99.90;;;16.96;74.23;101486.69;5075951;28;20440;-63
2022/04/13 08:22:45;;;;;;;20.33;13.00;;;16.50;99.90;;;17.01;74.00;101491.03;5075789;28;20047;-63
2022/04/13 08:25:14;;;;;;;20.50;13.10;;;16.60;99.90;;;17.03;73.98;101493.69;5075722;28;20490;-63
2022/04/13 08:27:44;;;;;;;21.88;14.15;;;16.60;99.90;;;17.00;73.81;101493.75;5075934;28;20443;-63
2022/04/13 08:30:14;;;;;;;21.67;13.35;;;16.60;99.90;;;16.94;73.88;101509.91;5076308;28;20063;-63
2022/04/13 08:32:43;;;;;;;19.20;13.02;;;16.50;99.90;;;16.94;73.67;101489.41;5075703;28;20040;-63
2022/04/13 08:35:12;;;;;;;24.33;13.50;;;16.50;99.90;;;17.00;73.84;101496.41;5075039;28;20040;-63
2022/04/13 08:37:43;;;;;;;19.30;12.73;;;16.60;99.90;;;17.03;73.97;101502.56;5075351;28;20056;-62
2022/04/13 08:40:12;;;;;;;19.33;13.80;;;16.60;99.90;;;17.09;73.75;101489.06;5075522;28;20049;-63
2022/04/13 08:42:47;;;;;;;20.42;13.02;;;16.70;99.90;;;16.40;72.97;101351.56;5075879;28;20060;-63
2022/04/13 08:45:28;;;;;;;18.70;12.73;;;16.70;99.90;;;17.14;72.96;101489.88;5075280;28;20501;-62
2022/04/13 08:47:59;;;;;;;19.33;12.32;;;16.70;99.90;;;17.06;72.46;101459.75;5075623;28;20413;-63
2022/04/13 08:50:29;;;;;;;23.67;13.23;;;16.80;99.90;;;17.23;72.39;101490.59;5075468;28;20052;-62
2022/04/13 08:53:02;;;;;;;18.00;13.27;;;16.80;99.90;;;17.30;72.70;101500.22;5075238;28;20044;-63
2022/04/13 08:55:33;;;;;;;24.05;14.18;;;16.90;99.90;;;17.30;72.77;101500.22;5075066;28;20101;-62
2022/04/13 08:58:11;;;;;;;17.80;13.10;;;16.90;99.90;;;17.25;72.54;101502.16;5075059;28;20040;-62
2022/04/13 09:00:49;;;;;;;21.00;13.93;;;16.90;99.90;;;17.25;72.35;101507.50;5075656;28;20040;-63
2022/04/13 09:03:28;;;;;;;22.95;15.73;;;16.80;99.90;;;17.27;72.70;101521.69;5075081;28;20048;-63
2022/04/13 09:05:58;;;;;;;22.92;15.60;;;16.90;99.90;;;17.24;73.34;101527.09;5074954;28;20040;-62
2022/04/13 09:08:39;;;;;;;22.75;15.15;;;16.80;99.90;;;17.27;73.22;101537.72;5075147;28;20372;-62
2022/04/13 09:11:08;;;;;;;23.90;14.95;;;16.80;99.90;;;17.14;73.21;101521.06;5074212;28;20049;-62
2022/04/13 09:13:38;;;;;;;26.50;15.98;;;16.80;99.90;;;17.29;73.40;101543.91;5075113;28;20064;-62
2022/04/13 09:16:07;;;;;;;25.80;16.80;;;16.90;99.90;;;17.28;73.66;101548.41;5074924;28;20036;-62
2022/04/13 09:18:35;;;;;;;27.08;16.45;;;16.90;99.90;;;17.26;74.01;101555.59;5074571;28;20371;-62
2022/04/13 09:21:04;;;;;;;30.38;16.20;;;16.90;99.90;;;17.27;74.08;101551.09;5074915;28;20049;-62
2022/04/13 09:23:34;;;;;;;21.67;16.30;;;16.90;99.90;;;17.29;73.86;101562.63;5074913;28;20063;-62
2022/04/13 09:26:05;;;;;;;31.65;14.88;;;16.90;99.90;;;17.07;73.64;101541.69;5074941;28;20101;-62
2022/04/13 09:28:33;;;;;;;23.17;14.48;;;16.90;99.90;;;17.18;73.64;101570.91;5074446;28;20045;-62
2022/04/13 09:31:02;;;;;;;20.85;14.52;;;16.80;99.90;;;17.08;74.03;101570.19;5074602;28;20083;-62
2022/04/13 09:33:30;;;;;;;23.98;15.82;;;16.70;99.90;;;17.07;74.13;101578.25;5056613;28;20076;-63
2022/04/13 09:35:59;;;;;;;28.40;15.52;;;16.70;99.90;;;17.09;74.23;101565.75;5074608;28;20037;-63
2022/04/13 09:38:28;;;;;;;24.73;14.57;;;16.70;99.90;;;16.89;73.86;101522.47;5074652;28;20048;-62
2022/04/13 09:41:08;;;;;;;23.02;15.27;;;16.70;99.90;;;17.03;73.63;101537.31;5074269;28;20048;-62
2022/04/13 09:43:37;;;;;;;23.23;14.50;;;16.80;99.90;;;17.19;73.38;101580.66;5074141;28;20060;-63
2022/04/13 09:46:06;;;;;;;24.08;13.93;;;16.80;99.90;;;17.26;73.38;101576.09;5074259;28;20078;-63
2022/04/13 09:48:40;;;;;;;25.77;15.13;;;16.80;99.90;;;17.24;73.65;101578.81;5074406;28;20071;-62
2022/04/13 09:51:08;;;;;;;22.15;13.75;;;16.80;99.90;;;17.28;73.32;101582.28;5056337;28;20101;-62
2022/04/13 09:53:43;;;;;;;23.55;14.15;;;16.90;99.90;;;17.28;73.30;101580.50;5074189;28;20402;-63
2022/04/13 09:56:24;;;;;;;22.15;13.30;;;16.90;99.90;;;17.29;73.15;101582.25;5073938;28;20478;-62
2022/04/13 09:58:52;;;;;;;;;;;16.90;99.90;;;17.32;73.48;101578.63;5074525;28;20105;-65
2022/04/13 10:01:22;;;;;;;27.17;13.95;;;17.00;99.90;;;17.26;73.90;101586.78;5072726;28;19959;-62
2022/04/13 10:03:55;;;;;;;19.08;13.60;;;16.90;99.90;;;17.29;73.84;101586.72;5073865;28;20044;-63
2022/04/13 10:06:28;;;;;;;21.17;13.55;;;16.90;99.90;;;17.28;73.94;101592.97;5073753;28;20120;-63
2022/04/13 10:09:01;;;;;;;24.35;14.23;;;16.90;99.90;;;16.86;74.08;101511.88;5073669;28;20445;-63
2022/04/13 10:11:31;;;;;;;22.45;14.73;;;16.90;99.90;;;17.32;74.58;101594.69;5073599;28;20553;-63